Ana Sayfa
METAR-TAF:

METAR-TAF

Havaalanları :

Acajutla, El Salvador

Enlem: 13-34N, Boylam: 089-50W, yükseklik: 15 m

Güncel hava durumu gözlemi

Rapor saat 22:50 UTC de 13 saat ve 28 dakika önce yapıldı.
Rüzgar güneydan 3 kt
Sıcaklık 32°C
Nem 63%
Basınç 1006 hPa
Görüş mesafesi 10 km veya daha fazla
3000 ft yükseklikte parçalı bulutlu

METAR: MSAC 162250Z 19003KT 9999 SCT030 32/24 Q1006 A2971

Saat: 06:18 (12:18 UTC)


TAF: eksik

4.000'den fazla havaalanı için hava durumu gözlemleri ve tahminleri (METAR ve TAF raporları).

Kullanılabilir istasyonlar harita üzerinde sarı ve kırmızı noktalarla gösterilir.

İstasyonun adını görmek için fareyi noktanın üzerinde gezdirin.

Sonrasında hava gözlem ve tahminlerini görmek için tıklayın.

Haritayı değiştirmek için: yaklaştırmak için siyah artı işaretli yeşil düğmeye ve uzaklaştırmak için de eksi işaretli düğmeye hızla tıklayın; bitişik haritalar için yeşil okları kullanın.


METAR-TAF: